Terminal Aerodrome Forecast
Issued by NWS

Current Version | Previous Version | Text Only | Print | Product List | Glossary On
Versions: 1 2 3 4 5 6 7 8 9 10 11 12 13 14 15 16 17 18 19 20 21 22 23 24 25 26 27 28 29 30 31 32 33 34 35 36
000
FTUS42 KCAE 272051 AAB
TAFCUB
TAF AMD
KCUB 272051Z 2721/2818 22005KT P6SM VCTS BKN035CB
      TEMPO 2721/2723 VRB15KT 2SM SHRA OVC025
     FM280000 VRB03KT P6SM SCT040 BKN080
     FM281000 VRB03KT 5SM BR SCT015 BKN050
     FM281300 VRB04KT P6SM SCT020 BKN040=

USA.gov is the U.S. government's official web portal to all federal, state and local government web resources and services.